Time;durP1;ratioP1;P1;durP2;ratioP2;P2;SDS_P1;SDS_P2;PMS_P1;PMS_P2;Temp;Humidity;BMP_temperature;BMP_pressure;BME280_temperature;BME280_humidity;BME280_pressure;Samples;Min_cycle;Max_cycle;Signal;HPM_P1;HPM_P2
2022/01/28 00:00:32;;;;;;;9.38;2.33;;;;;;;;;;5020550;28;20091;-82
2022/01/28 00:03:04;;;;;;;13.52;2.55;;;;;;;;;;5006395;28;20080;-82
2022/01/28 00:05:31;;;;;;;21.15;3.17;;;;;;;;;;5033939;28;20049;-81
2022/01/28 00:07:57;;;;;;;14.05;3.05;;;;;;;;;;5009452;28;20079;-81
2022/01/28 00:10:24;;;;;;;12.02;2.35;;;;;;;;;;5016802;28;20564;-82
2022/01/28 00:15:34;;;;;;;12.70;2.60;;;;;;;;;;5021836;28;20041;-82
2022/01/28 00:39:40;;;;;;;14.98;2.30;;;;;;;;;;5096280;28;20043;-82
2022/01/28 00:42:07;;;;;;;17.10;2.28;;;;;;;;;;5095980;28;20062;-82
2022/01/28 00:44:33;;;;;;;13.93;2.42;;;;;;;;;;5091472;28;20475;-82
2022/01/28 00:46:59;;;;;;;10.85;2.58;;;;;;;;;;5094378;28;20108;-82
2022/01/28 00:49:25;;;;;;;15.30;2.15;;;;;;;;;;5099118;27;20177;-82
2022/01/28 00:51:51;;;;;;;14.20;2.78;;;;;;;;;;5080450;28;20421;-82
2022/01/28 00:54:18;;;;;;;13.85;2.28;;;;;;;;;;5093546;28;20126;-82
2022/01/28 00:56:44;;;;;;;19.80;3.78;;;5.30;1.00;;;;;;5091737;28;20817;-82
2022/01/28 00:59:11;;;;;;;10.95;2.92;;;;;;;;;;5099561;28;20122;-83
2022/01/28 01:01:37;;;;;;;15.00;2.20;;;;;;;;;;5094189;28;20090;-82
2022/01/28 01:04:04;;;;;;;17.50;3.75;;;;;;;;;;5095576;28;20070;-83
2022/01/28 01:06:30;;;;;;;11.68;1.90;;;5.40;1.00;;;;;;5091248;28;20567;-83
2022/01/28 01:08:57;;;;;;;16.80;3.00;;;;;;;;;;5093867;28;20028;-83
2022/01/28 01:11:24;;;;;;;10.68;2.33;;;;;;;;;;5095694;27;20040;-83
2022/01/28 01:13:51;;;;;;;18.45;3.30;;;;;;;;;;5095242;28;20043;-83
2022/01/28 01:16:23;;;;;;;17.13;2.97;;;;;;;;;;5078770;28;20081;-83
2022/01/28 01:19:00;;;;;;;17.42;3.00;;;;;;;;;;5095077;28;20055;-83
2022/01/28 01:21:29;;;;;;;14.57;2.85;;;;;;;;;;5096156;28;20516;-83
2022/01/28 01:23:57;;;;;;;22.38;4.13;;;;;;;;;;5083971;28;20044;-82
2022/01/28 01:26:35;;;;;;;18.83;3.25;;;;;;;;;;5096467;27;20092;-83
2022/01/28 01:29:02;;;;;;;15.02;2.72;;;;;;;;;;5074158;28;20039;-83
2022/01/28 01:31:28;;;;;;;13.35;3.03;;;;;;;;;;5096053;28;20043;-83
2022/01/28 01:34:01;;;;;;;17.70;2.40;;;;;;;;;;5079210;28;20035;-83
2022/01/28 01:36:27;;;;;;;19.63;3.78;;;;;;;;;;5088777;28;20032;-83
2022/01/28 01:38:53;;;;;;;19.00;3.53;;;;;;;;;;5072804;28;20091;-82
2022/01/28 01:41:33;;;;;;;21.67;3.53;;;;;;;;;;5080097;28;20076;-83
2022/01/28 01:44:13;;;;;;;14.93;2.97;;;;;;;;;;5091726;28;20052;-83
2022/01/28 01:52:19;;;;;;;22.13;3.40;;;;;;;;;;5090033;28;20048;-82
2022/01/28 01:54:46;;;;;;;18.02;3.30;;;;;;;;;;5079486;28;20063;-82
2022/01/28 01:57:13;;;;;;;23.65;4.32;;;;;;;;;;5081303;28;20039;-82
2022/01/28 01:59:40;;;;;;;19.70;3.20;;;5.50;1.00;;;;;;5092220;28;20048;-82
2022/01/28 02:02:07;;;;;;;25.90;4.35;;;;;;;;;;5092644;28;20191;-82
2022/01/28 02:04:33;;;;;;;15.38;3.53;;;;;;;;;;5092649;28;20075;-82
2022/01/28 02:07:00;;;;;;;19.05;3.30;;;;;;;;;;5074261;27;20043;-82
2022/01/28 02:09:26;;;;;;;18.55;3.22;;;;;;;;;;5080819;28;20047;-83
2022/01/28 02:11:53;;;;;;;19.65;3.67;;;;;;;;;;5093884;28;20146;-83
2022/01/28 02:14:19;;;;;;;20.10;3.55;;;;;;;;;;5092302;28;20564;-82
2022/01/28 02:16:45;;;;;;;19.00;3.95;;;;;;;;;;5077397;28;20176;-83
2022/01/28 02:19:11;;;;;;;17.17;3.53;;;;;;;;;;5095814;28;20158;-83
2022/01/28 02:21:44;;;;;;;19.90;3.13;;;5.80;1.00;;;;;;5098161;28;20430;-83
2022/01/28 02:24:11;;;;;;;19.65;3.78;;;;;;;;;;5075928;28;20056;-83
2022/01/28 02:26:38;;;;;;;13.40;3.38;;;;;;;;;;5090688;28;20133;-83
2022/01/28 02:29:12;;;;;;;18.77;4.07;;;;;;;;;;5091794;28;20051;-83
2022/01/28 02:31:38;;;;;;;25.67;3.97;;;;;;;;;;5077474;28;20084;-83
2022/01/28 02:34:06;;;;;;;32.35;4.10;;;;;;;;;;5092888;28;20055;-83
2022/01/28 02:36:32;;;;;;;17.25;3.22;;;;;;;;;;5071285;28;20131;-83
2022/01/28 02:38:59;;;;;;;12.57;2.75;;;;;;;;;;5096730;27;20154;-84
2022/01/28 02:41:31;;;;;;;15.50;3.47;;;;;;;;;;5093605;27;20048;-83
2022/01/28 02:46:31;;;;;;;18.80;3.65;;;;;;;;;;5087347;28;20440;-83
2022/01/28 02:49:07;;;;;;;14.25;3.35;;;;;;;;;;5092252;28;20040;-83
2022/01/28 02:51:34;;;;;;;18.17;3.65;;;;;;;;;;5086615;28;20039;-83
2022/01/28 02:54:11;;;;;;;16.90;3.35;;;;;;;;;;5082285;27;20119;-83
2022/01/28 02:56:39;;;;;;;16.83;3.40;;;;;;;;;;5080428;28;20046;-83
2022/01/28 02:59:06;;;;;;;21.30;4.20;;;;;;;;;;5100964;27;20510;-82
2022/01/28 03:01:32;;;;;;;13.85;3.05;;;;;;;;;;5090381;28;20043;-82
2022/01/28 03:04:03;;;;;;;21.02;3.95;;;;;;;;;;5095208;28;20039;-81
2022/01/28 03:06:29;;;;;;;13.10;3.28;;;;;;;;;;5088889;28;20043;-82
2022/01/28 03:16:22;;;;;;;16.85;4.00;;;;;;;;;;5092709;28;20127;-82
2022/01/28 03:18:56;;;;;;;15.70;2.90;;;;;;;;;;5095385;28;20100;-82
2022/01/28 03:23:59;;;;;;;26.27;4.30;;;;;;;;;;5090774;28;20039;-82
2022/01/28 03:26:26;;;;;;;22.75;3.53;;;;;;;;;;5090200;28;20046;-82
2022/01/28 03:28:53;;;;;;;21.05;3.35;;;;;;;;;;5077022;28;20038;-84
2022/01/28 03:31:19;;;;;;;19.75;3.25;;;;;;;;;;5077967;27;20043;-82
2022/01/28 03:33:45;;;;;;;18.80;3.35;;;;;;;;;;5100019;28;20032;-83
2022/01/28 03:36:12;;;;;;;12.02;2.47;;;;;;;;;;5098108;27;20043;-82
2022/01/28 03:38:39;;;;;;;21.38;3.55;;;;;;;;;;5086568;27;20035;-82
2022/01/28 03:41:12;;;;;;;16.42;3.30;;;;;;;;;;5102943;27;20104;-83
2022/01/28 03:43:38;;;;;;;24.92;3.03;;;;;;;;;;5096872;27;20047;-83
2022/01/28 03:46:04;;;;;;;14.93;2.60;;;;;;;;;;5098333;27;20150;-82
2022/01/28 03:48:30;;;;;;;13.93;2.67;;;;;;;;;;5091881;27;20036;-82
2022/01/28 03:50:56;;;;;;;19.02;3.85;;;;;;;;;;5116423;27;20517;-82
2022/01/28 03:53:22;;;;;;;18.63;3.20;;;;;;;;;;5102140;27;20043;-82
2022/01/28 03:55:51;;;;;;;20.63;3.42;;;;;;;;;;5088741;28;20052;-82
2022/01/28 03:58:17;;;;;;;16.15;2.78;;;;;;;;;;5101757;28;20054;-82
2022/01/28 04:00:43;;;;;;;23.08;4.30;;;;;;;;;;5099273;28;20137;-82
2022/01/28 04:13:51;;;;;;;12.43;2.30;;;;;;;;;;5098177;27;20400;-83
2022/01/28 04:18:47;;;;;;;23.73;4.78;;;;;;;;;;5101629;28;20144;-83
2022/01/28 04:21:13;;;;;;;30.55;4.07;;;;;;;;;;5095528;28;20358;-83
2022/01/28 04:23:39;;;;;;;16.52;3.88;;;;;;;;;;5091325;28;20517;-82
2022/01/28 04:26:05;;;;;;;28.88;5.10;;;;;;;;;;5090813;28;20062;-83
2022/01/28 04:28:32;;;;;;;23.30;3.45;;;;;;;;;;5090839;28;20067;-82
2022/01/28 04:30:58;;;;;;;30.05;4.10;;;;;;;;;;5097738;27;20036;-82
2022/01/28 04:33:24;;;;;;;29.27;4.25;;;;;;;;;;5100806;28;20066;-83
2022/01/28 04:35:53;;;;;;;27.67;5.22;;;;;;;;;;5099144;28;20051;-82
2022/01/28 04:38:34;;;;;;;23.85;4.25;;;;;;;;;;5077015;28;20048;-82
2022/01/28 04:41:24;;;;;;;27.00;3.90;;;;;;;;;;5093326;28;20047;-82
2022/01/28 04:43:58;;;;;;;27.45;4.75;;;;;;;;;;5082885;28;20040;-82
2022/01/28 04:49:02;;;;;;;23.98;4.28;;;;;;;;;;5089661;28;20039;-82
2022/01/28 04:51:48;;;;;;;16.15;3.25;;;;;;;;;;5090334;28;20119;-81
2022/01/28 04:57:11;;;;;;;14.75;3.53;;;;;;;;;;5096840;28;20113;-82
2022/01/28 05:05:15;;;;;;;15.77;3.23;;;;;;;;;;5093579;28;20134;-82
2022/01/28 05:08:23;;;;;;;24.30;3.25;;;;;;;;;;5075462;28;20071;-82
2022/01/28 05:10:57;;;;;;;17.30;2.50;;;;;;;;;;5091066;28;20039;-82
2022/01/28 05:26:38;;;;;;;14.45;3.20;;;;;;;;;;5088798;28;20130;-82
2022/01/28 05:29:04;;;;;;;25.50;3.03;;;;;;;;;;5070518;28;20178;-81
2022/01/28 05:31:30;;;;;;;21.17;4.28;;;;;;;;;;5099431;28;20416;-81
2022/01/28 05:33:56;;;;;;;14.55;3.10;;;;;;;;;;5096529;28;20046;-81
2022/01/28 05:36:22;;;;;;;19.75;3.33;;;;;;;;;;5096555;28;20055;-82
2022/01/28 05:38:49;;;;;;;23.98;3.97;;;;;;;;;;5087332;28;20082;-82
2022/01/28 05:41:15;;;;;;;22.55;3.58;;;;;;;;;;5093157;28;20039;-81
2022/01/28 05:43:41;;;;;;;22.02;2.92;;;;;;;;;;5075117;28;20040;-81
2022/01/28 05:46:08;;;;;;;22.73;3.88;;;;;;;;;;5091643;28;20040;-81
2022/01/28 05:48:34;;;;;;;17.95;3.70;;;;;;;;;;5088420;28;20036;-82
2022/01/28 05:51:00;;;;;;;19.67;2.78;;;;;;;;;;5078857;28;20573;-82
2022/01/28 05:53:26;;;;;;;23.02;4.32;;;;;;;;;;5091060;28;20047;-82
2022/01/28 05:55:52;;;;;;;27.60;3.13;;;;;;;;;;5079869;28;20526;-81
2022/01/28 05:58:19;;;;;;;19.23;2.97;;;;;;;;;;5092159;28;20047;-82
2022/01/28 06:00:45;;;;;;;19.50;3.15;;;;;;;;;;5075037;28;20035;-81
2022/01/28 06:03:11;;;;;;;16.33;2.72;;;;;;;;;;5086899;28;20044;-82
2022/01/28 06:05:37;;;;;;;24.10;3.50;;;;;;;;;;5087473;28;20043;-81
2022/01/28 06:08:03;;;;;;;19.25;3.08;;;;;;;;;;5096698;28;20043;-81
2022/01/28 06:10:30;;;;;;;22.17;2.95;;;;;;;;;;5087739;28;20123;-81
2022/01/28 06:12:56;;;;;;;28.67;3.58;;;;;;;;;;5070506;27;20114;-81
2022/01/28 06:15:22;;;;;;;27.88;3.35;;;;;;;;;;5087794;28;20046;-81
2022/01/28 06:17:48;;;;;;;31.40;3.67;;;;;;;;;;5092879;28;20055;-81
2022/01/28 06:20:19;;;;;;;19.35;3.25;;;;;;;;;;5071861;28;20118;-82
2022/01/28 06:22:46;;;;;;;22.98;4.45;;;;;;;;;;5086816;28;20090;-81
2022/01/28 06:25:15;;;;;;;26.65;3.78;;;4.20;1.00;;;;;;5095559;28;20447;-82
2022/01/28 06:27:41;;;;;;;24.60;4.03;;;;;;;;;;5092863;28;20035;-81
2022/01/28 06:30:08;;;;;;;23.63;5.20;;;;;;;;;;5078631;28;20502;-82
2022/01/28 06:32:34;;;;;;;22.05;3.03;;;;;;;;;;5080670;28;20035;-81
2022/01/28 06:35:01;;;;;;;24.30;3.22;;;;;;;;;;5096527;28;20040;-81
2022/01/28 06:37:27;;;;;;;30.00;3.47;;;;;;;;;;5078981;28;20126;-81
2022/01/28 06:39:53;;;;;;;25.25;4.10;;;;;;;;;;5086310;28;20334;-81
2022/01/28 06:42:20;;;;;;;23.10;3.92;;;;;;;;;;5092957;28;20127;-81
2022/01/28 06:44:46;;;;;;;29.63;4.20;;;;;;;;;;5097815;28;20678;-82
2022/01/28 06:47:12;;;;;;;27.70;3.45;;;;;;;;;;5093111;28;20040;-82
2022/01/28 06:49:38;;;;;;;25.85;4.45;;;;;;;;;;5071677;28;20509;-82
2022/01/28 06:52:05;;;;;;;17.40;2.92;;;;;;;;;;5078615;28;20044;-82
2022/01/28 06:54:31;;;;;;;24.58;4.18;;;;;;;;;;5096503;28;20101;-82
2022/01/28 06:56:58;;;;;;;21.75;4.22;;;;;;;;;;5078530;28;20040;-82
2022/01/28 06:59:24;;;;;;;21.50;3.55;;;;;;;;;;5092086;28;20043;-82
2022/01/28 07:01:50;;;;;;;30.60;4.43;;;;;;;;;;5078436;28;20071;-81
2022/01/28 07:04:16;;;;;;;23.15;3.97;;;;;;;;;;5090398;28;20062;-81
2022/01/28 07:06:43;;;;;;;18.70;3.58;;;;;;;;;;5079219;28;20096;-82
2022/01/28 07:09:10;;;;;;;29.13;4.55;;;;;;;;;;5095315;28;20118;-81
2022/01/28 07:11:36;;;;;;;13.80;2.95;;;;;;;;;;5087359;28;20040;-82
2022/01/28 07:14:02;;;;;;;25.98;3.65;;;;;;;;;;5085668;28;20043;-82
2022/01/28 07:16:29;;;;;;;20.95;3.25;;;;;;;;;;5095622;28;20040;-82
2022/01/28 07:18:56;;;;;;;28.92;3.35;;;;;;;;;;5090378;28;20040;-82
2022/01/28 07:21:22;;;;;;;15.18;3.10;;;;;;;;;;5075954;28;20055;-82
2022/01/28 07:23:48;;;;;;;21.67;3.30;;;;;;;;;;5088243;28;20130;-81
2022/01/28 07:26:14;;;;;;;11.20;2.55;;;;;;;;;;5090036;28;20046;-81
2022/01/28 07:28:41;;;;;;;20.77;3.05;;;;;;;;;;5093185;28;20040;-82
2022/01/28 07:31:14;;;;;;;23.65;3.35;;;;;;;;;;5068925;28;20119;-81
2022/01/28 07:33:40;;;;;;;22.98;3.38;;;;;;;;;;5080726;28;20059;-81
2022/01/28 07:36:06;;;;;;;24.58;4.03;;;;;;;;;;5080269;28;20054;-81
2022/01/28 07:38:32;;;;;;;31.05;4.78;;;;;;;;;;5094747;28;20073;-81
2022/01/28 07:40:59;;;;;;;28.17;3.58;;;;;;;;;;5090786;28;20528;-81
2022/01/28 07:43:26;;;;;;;29.15;3.78;;;;;;;;;;5074573;28;20047;-81
2022/01/28 07:45:52;;;;;;;25.92;3.53;;;;;;;;;;5073693;28;20040;-80
2022/01/28 07:48:18;;;;;;;25.67;3.33;;;;;;;;;;5093674;28;20429;-83
2022/01/28 07:50:44;;;;;;;29.02;4.53;;;;;;;;;;5091755;28;20470;-86
2022/01/28 07:53:14;;;;;;;21.10;4.10;;;;;;;;;;5091582;28;20063;-85
2022/01/28 07:55:40;;;;;;;29.40;3.83;;;;;;;;;;5093664;28;20073;-85
2022/01/28 07:58:06;;;;;;;29.50;4.20;;;;;;;;;;5076121;28;20083;-85
2022/01/28 08:00:33;;;;;;;24.33;3.95;;;;;;;;;;5081660;28;20048;-86
2022/01/28 08:02:59;;;;;;;27.63;3.85;;;;;;;;;;5096202;28;20515;-84
2022/01/28 08:05:25;;;;;;;27.15;4.97;;;;;;;;;;5073314;28;20071;-84
2022/01/28 08:07:52;;;;;;;26.13;4.47;;;;;;;;;;5097608;28;20130;-84
2022/01/28 08:10:19;;;;;;;21.83;3.70;;;;;;;;;;5076413;28;20042;-84
2022/01/28 08:12:45;;;;;;;25.25;3.50;;;;;;;;;;5091899;28;20040;-86
2022/01/28 08:15:11;;;;;;;23.25;2.92;;;;;;;;;;5080931;28;20506;-85
2022/01/28 08:17:37;;;;;;;26.15;3.47;;;;;;;;;;5099881;28;20039;-83
2022/01/28 08:20:04;;;;;;;28.85;4.32;;;;;;;;;;5089122;28;20043;-85
2022/01/28 08:22:30;;;;;;;20.42;2.90;;;;;;;;;;5096631;28;20047;-84
2022/01/28 08:24:56;;;;;;;28.58;3.35;;;;;;;;;;5090570;28;20044;-85
2022/01/28 08:27:22;;;;;;;30.40;4.47;;;;;;;;;;5079893;28;20098;-83
2022/01/28 08:29:48;;;;;;;27.90;3.47;;;;;;;;;;5094239;28;20039;-82
2022/01/28 08:32:14;;;;;;;34.22;3.63;;;;;;;;;;5095674;28;20156;-88
2022/01/28 08:34:41;;;;;;;26.45;4.03;;;;;;;;;;5092723;28;20608;-83
2022/01/28 08:37:07;;;;;;;25.38;3.22;;;;;;;;;;5076505;28;20092;-84
2022/01/28 08:39:36;;;;;;;27.45;3.40;;;;;;;;;;5091718;28;20396;-85
2022/01/28 08:42:02;;;;;;;22.20;3.85;;;;;;;;;;5085351;28;20386;-84
2022/01/28 08:44:29;;;;;;;25.60;3.22;;;;;;;;;;5092628;28;20048;-83
2022/01/28 08:46:55;;;;;;;20.65;3.58;;;;;;;;;;5097255;28;20071;-78
2022/01/28 08:49:21;;;;;;;25.08;3.33;;;;;;;;;;5089601;28;20308;-77
2022/01/28 08:51:48;;;;;;;25.65;3.92;;;;;;;;;;5092606;28;20034;-79
2022/01/28 08:54:16;;;;;;;21.58;3.58;;;;;;;;;;5077220;27;20542;-79
2022/01/28 08:56:42;;;;;;;29.17;4.53;;;;;;;;;;5094052;27;20574;-78
2022/01/28 08:59:09;;;;;;;40.22;8.43;;;;;;;;;;5078495;27;20165;-78
2022/01/28 09:01:35;;;;;;;33.65;6.95;;;;;;;;;;5096525;27;20779;-78
2022/01/28 09:04:01;;;;;;;30.20;4.30;;;;;;;;;;5098176;27;20035;-78
2022/01/28 09:06:27;;;;;;;23.55;3.08;;;;;;;;;;5091790;28;20044;-78
2022/01/28 09:08:55;;;;;;;25.05;3.28;;;;;;;;;;5096595;27;20049;-77
2022/01/28 09:13:48;;;;;;;23.42;3.15;;;;;;;;;;5096621;27;20128;-79
2022/01/28 09:16:14;;;;;;;18.30;2.25;;;;;;;;;;5102826;27;20025;-78
2022/01/28 09:18:40;;;;;;;21.73;3.28;;;;;;;;;;5075382;27;20047;-78
2022/01/28 09:21:06;;;;;;;22.60;3.28;;;;;;;;;;5098128;27;20108;-78
2022/01/28 09:23:33;;;;;;;21.27;2.80;;;;;;;;;;5100832;27;20074;-78
2022/01/28 09:25:59;;;;;;;20.25;2.80;;;;;;;;;;5096092;27;20389;-80
2022/01/28 09:28:25;;;;;;;21.30;2.65;;;;;;;;;;5094796;28;20042;-78
2022/01/28 09:30:52;;;;;;;27.48;4.63;;;;;;;;;;5095215;28;20031;-81
2022/01/28 09:33:18;;;;;;;18.08;2.85;;;;;;;;;;5092835;27;20050;-78
2022/01/28 09:35:45;;;;;;;21.90;4.00;;;;;;;;;;5090484;27;20630;-78
2022/01/28 09:38:11;;;;;;;12.27;2.22;;;;;;;;;;5094962;27;20764;-78
2022/01/28 09:40:38;;;;;;;14.70;2.60;;;;;;;;;;5093078;27;20468;-78
2022/01/28 09:43:07;;;;;;;10.45;2.42;;;;;;;;;;5100214;27;20050;-78
2022/01/28 09:45:33;;;;;;;18.65;3.20;;;;;;;;;;5094216;27;20035;-79
2022/01/28 09:48:00;;;;;;;15.80;2.38;;;;;;;;;;5091398;27;20429;-78
2022/01/28 09:50:28;;;;;;;25.60;3.33;;;;;;;;;;5097427;27;20035;-79
2022/01/28 09:52:55;;;;;;;21.23;2.78;;;;;;;;;;5077352;27;20092;-79
2022/01/28 09:55:22;;;;;;;21.40;3.10;;;;;;;;;;5102096;27;20116;-78
2022/01/28 09:57:56;;;;;;;25.05;3.80;;;;;;;;;;5100441;27;20047;-78
2022/01/28 10:00:25;;;;;;;26.40;3.92;;;;;;;;;;5082335;27;20755;-79
2022/01/28 10:02:51;;;;;;;16.40;2.60;;;;;;;;;;5078477;27;20035;-79
2022/01/28 10:05:18;;;;;;;18.80;2.92;;;;;;;;;;5105115;27;20043;-79
2022/01/28 10:07:58;;;;;;;14.57;2.17;;;;;;;;;;5092853;27;20090;-79
2022/01/28 10:10:24;;;;;;;17.92;3.67;;;;;;;;;;5095075;28;20043;-79
2022/01/28 10:13:09;;;;;;;20.30;2.72;;;;;;;;;;5098104;27;20508;-79
2022/01/28 10:15:35;;;;;;;15.40;2.40;;;;;;;;;;5107715;27;20076;-79
2022/01/28 10:18:01;;;;;;;20.50;4.30;;;;;;;;;;5098988;27;20050;-79
2022/01/28 10:20:28;;;;;;;21.88;3.22;;;;;;;;;;5080599;28;20034;-79
2022/01/28 10:22:59;;;;;;;19.23;3.50;;;;;;;;;;5099976;27;20039;-79
2022/01/28 10:25:26;;;;;;;17.33;2.65;;;;;;;;;;5102552;27;20579;-77
2022/01/28 10:28:03;;;;;;;22.88;3.40;;;;;;;;;;5095067;27;20040;-79
2022/01/28 10:30:30;;;;;;;19.33;3.38;;;;;;;;;;5098458;27;20058;-78
2022/01/28 10:33:16;;;;;;;25.25;3.90;;;;;;;;;;5080337;27;20164;-79
2022/01/28 10:36:12;;;;;;;20.85;2.75;;;;;;;;;;5100547;27;20042;-78
2022/01/28 10:38:41;;;;;;;18.35;2.30;;;;;;;;;;5085685;27;20051;-79
2022/01/28 10:41:07;;;;;;;23.30;3.75;;;;;;;;;;5102885;27;20081;-78
2022/01/28 10:43:42;;;;;;;26.75;3.72;;;8.80;1.00;;;;;;5098744;27;20031;-78
2022/01/28 10:46:08;;;;;;;27.52;3.25;;;;;;;;;;5070109;28;20078;-78
2022/01/28 10:48:47;;;;;;;20.95;2.75;;;;;;;;;;5094400;27;20148;-79
2022/01/28 10:51:13;;;;;;;18.45;2.97;;;;;;;;;;5096080;27;20046;-78
2022/01/28 10:53:39;;;;;;;32.25;2.90;;;;;;;;;;5099568;28;20126;-77
2022/01/28 10:56:11;;;;;;;18.63;3.30;;;;;;;;;;5088362;28;20530;-78
2022/01/28 10:58:38;;;;;;;25.00;3.25;;;;;;;;;;5079207;27;20043;-78
2022/01/28 11:01:04;;;;;;;22.05;3.22;;;;;;;;;;5090616;27;20227;-79
2022/01/28 11:03:31;;;;;;;14.30;2.58;;;;;;;;;;5100947;27;20046;-78
2022/01/28 11:05:59;;;;;;;17.45;2.85;;;;;;;;;;5102033;27;20035;-79
2022/01/28 11:08:30;;;;;;;19.95;3.97;;;8.40;1.00;;;;;;5076725;27;20099;-78
2022/01/28 11:10:56;;;;;;;20.05;4.03;;;;;;;;;;5096858;27;20039;-78
2022/01/28 11:13:22;;;;;;;22.90;4.07;;;;;;;;;;5074296;27;20519;-77
2022/01/28 11:15:49;;;;;;;22.23;3.28;;;;;;;;;;5097716;28;20130;-78
2022/01/28 11:18:15;;;;;;;22.88;3.10;;;;;;;;;;5096105;28;20071;-78
2022/01/28 11:20:41;;;;;;;19.40;3.65;;;;;;;;;;5096204;28;20072;-79
2022/01/28 11:23:25;;;;;;;20.92;3.20;;;;;;;;;;5086374;28;20043;-79
2022/01/28 11:26:18;;;;;;;21.98;3.05;;;;;;;;;;5091219;28;20036;-78
2022/01/28 11:28:45;;;;;;;24.08;3.25;;;;;;;;;;5068929;28;20176;-78
2022/01/28 11:31:12;;;;;;;20.33;3.13;;;;;;;;;;5100930;28;20040;-78
2022/01/28 11:33:43;;;;;;;18.60;2.58;;;;;;;;;;5095529;28;20129;-78
2022/01/28 11:36:09;;;;;;;19.40;3.60;;;;;;;;;;5090687;28;20565;-77
2022/01/28 11:38:36;;;;;;;18.90;2.70;;;;;;;;;;5088410;28;20047;-83
2022/01/28 11:41:13;;;;;;;14.48;2.10;;;;;;;;;;5101160;28;20046;-83
2022/01/28 11:43:48;;;;;;;17.08;2.22;;;13.30;1.00;;;;;;5090538;28;20069;-83
2022/01/28 11:46:17;;;;;;;21.20;2.63;;;;;;;;;;5093248;28;20450;-84
2022/01/28 11:48:55;;;;;;;19.17;3.08;;;;;;;;;;5097420;28;20052;-84
2022/01/28 11:51:38;;;;;;;13.73;2.40;;;;;;;;;;5086413;28;20122;-83
2022/01/28 11:54:08;;;;;;;20.08;2.78;;;;;;;;;;5097858;27;20148;-84
2022/01/28 11:56:39;;;;;;;17.98;2.40;;;;;;;;;;5103461;27;20062;-83
2022/01/28 11:59:10;;;;;;;14.57;2.25;;;;;;;;;;5097169;27;20065;-83
2022/01/28 12:01:39;;;;;;;17.35;2.65;;;;;;;;;;5100276;27;20047;-83
2022/01/28 12:04:24;;;;;;;23.27;2.88;;;;;;;;;;5093915;27;20111;-83
2022/01/28 12:07:13;;;;;;;21.05;2.60;;;;;;;;;;5089610;28;20504;-82
2022/01/28 12:09:39;;;;;;;20.05;3.05;;;;;;;;;;5080440;27;20047;-82
2022/01/28 12:12:10;;;;;;;12.32;2.20;;;;;;;;;;5104905;27;20039;-83
2022/01/28 12:14:59;;;;;;;19.17;2.03;;;14.40;1.00;;;;;;5111292;27;20110;-81
2022/01/28 12:17:32;;;;;;;16.10;2.50;;;;;;;;;;5105489;27;20451;-83
2022/01/28 12:20:18;;;;;;;14.43;2.80;;;;;;;;;;5099343;27;20062;-82
2022/01/28 12:23:00;;;;;;;21.08;2.75;;;;;;;;;;5103515;27;20038;-83
2022/01/28 12:25:35;;;;;;;18.48;2.65;;;14.20;1.00;;;;;;5105700;27;20046;-82
2022/01/28 12:28:30;;;;;;;23.95;3.10;;;;;;;;;;5084009;27;20118;-83
2022/01/28 12:31:06;;;;;;;23.00;2.78;;;;;;;;;;5083311;27;20035;-82
2022/01/28 12:33:38;;;;;;;24.73;3.60;;;;;;;;;;5099466;27;20080;-82
2022/01/28 12:36:12;;;;;;;21.13;3.17;;;;;;;;;;5096069;27;20058;-82
2022/01/28 12:38:43;;;;;;;21.17;2.60;;;;;;;;;;5083199;27;20039;-83
2022/01/28 12:41:10;;;;;;;20.98;2.30;;;;;;;;;;5092665;28;20048;-83
2022/01/28 12:43:39;;;;;;;21.50;2.58;;;;;;;;;;5099237;27;20959;-82
2022/01/28 12:46:11;;;;;;;16.45;2.50;;;12.80;1.00;;;;;;5084123;27;20574;-83
2022/01/28 12:48:45;;;;;;;10.35;2.50;;;;;;;;;;5097016;27;20050;-83
2022/01/28 12:51:11;;;;;;;13.90;1.70;;;;;;;;;;5097106;28;20647;-84
2022/01/28 12:53:47;;;;;;;12.57;1.88;;;12.50;1.00;;;;;;5096959;28;20293;-84
2022/01/28 12:56:16;;;;;;;21.63;2.13;;;;;;;;;;5076505;28;20048;-84
2022/01/28 12:58:50;;;;;;;12.23;2.00;;;;;;;;;;5086787;27;20495;-84
2022/01/28 13:01:19;;;;;;;15.38;1.98;;;11.80;1.00;;;;;;5094950;27;20092;-81
2022/01/28 13:03:56;;;;;;;14.63;2.22;;;;;;;;;;5098105;27;20128;-81
2022/01/28 13:06:42;;;;;;;14.65;2.35;;;12.30;1.00;;;;;;5098912;27;20091;-82
2022/01/28 13:09:16;;;;;;;19.65;2.40;;;;;;;;;;5097831;27;20180;-82
2022/01/28 13:11:56;;;;;;;9.65;1.70;;;;;;;;;;5090953;27;20527;-82
2022/01/28 13:14:32;;;;;;;19.92;2.97;;;12.70;1.00;;;;;;5100967;27;20050;-81
2022/01/28 13:16:59;;;;;;;18.23;2.45;;;;;;;;;;5095949;27;20648;-82
2022/01/28 13:19:25;;;;;;;16.27;2.28;;;;;;;;;;5093365;27;20039;-82
2022/01/28 13:21:51;;;;;;;11.25;2.13;;;;;;;;;;5106263;27;20043;-82
2022/01/28 13:24:19;;;;;;;15.82;2.05;;;;;;;;;;5101069;27;20027;-82
2022/01/28 13:27:05;;;;;;;20.17;3.05;;;;;;;;;;5101583;27;20074;-82
2022/01/28 13:29:32;;;;;;;10.60;1.80;;;;;;;;;;5088274;27;20070;-82
2022/01/28 13:31:58;;;;;;;12.88;2.08;;;;;;;;;;5104513;27;20047;-80
2022/01/28 13:34:25;;;;;;;9.77;1.35;;;;;;;;;;5094792;27;20046;-82
2022/01/28 13:36:52;;;;;;;15.45;2.55;;;;;;;;;;5080664;28;20092;-82
2022/01/28 13:39:20;;;;;;;14.32;2.15;;;;;;;;;;5101874;27;20045;-82
2022/01/28 13:41:50;;;;;;;14.45;1.70;;;;;;;;;;5100982;27;20035;-81
2022/01/28 13:44:27;;;;;;;13.75;2.40;;;;;;;;;;5098773;27;20061;-82
2022/01/28 13:47:01;;;;;;;12.45;1.77;;;;;;;;;;5084088;27;20100;-81
2022/01/28 13:49:35;;;;;;;15.27;1.77;;;10.80;1.00;;;;;;5080548;28;20035;-82
2022/01/28 13:52:09;;;;;;;12.98;1.73;;;;;;;;;;5106455;27;20107;-80
2022/01/28 13:54:35;;;;;;;14.23;1.95;;;;;;;;;;5096606;28;20049;-82
2022/01/28 13:57:02;;;;;;;18.25;1.95;;;;;;;;;;5097554;27;20046;-82
2022/01/28 13:59:32;;;;;;;13.85;2.00;;;;;;;;;;5098945;27;20061;-81
2022/01/28 14:01:59;;;;;;;10.65;1.52;;;;;;;;;;5095696;27;20078;-82
2022/01/28 14:05:01;;;;;;;15.38;3.72;;;;;;;;;;5084467;27;20706;-81
2022/01/28 14:07:27;;;;;;;7.30;1.20;;;;;;;;;;5023649;28;20046;-81
2022/01/28 14:09:57;;;;;;;15.30;1.65;;;;;;;;;;5098244;27;20139;-82
2022/01/28 14:12:50;;;;;;;8.98;1.42;;;;;;;;;;5094720;27;20122;-82
2022/01/28 14:15:42;;;;;;;17.30;1.90;;;8.90;1.00;;;;;;5070681;27;20035;-84
2022/01/28 14:18:09;;;;;;;14.18;1.60;;;;;;;;;;5120366;27;20040;-83
2022/01/28 14:20:35;;;;;;;11.18;2.15;;;;;;;;;;5094218;27;20271;-81
2022/01/28 14:23:01;;;;;;;14.80;1.45;;;;;;;;;;5096563;27;20553;-83
2022/01/28 14:25:27;;;;;;;13.07;1.40;;;;;;;;;;5098435;27;20031;-81
2022/01/28 14:30:43;;;;;;;12.73;1.02;;;;;;;;;;5090297;27;20086;-82
2022/01/28 14:33:10;;;;;;;14.55;1.60;;;;;;;;;;5088828;27;20059;-81
2022/01/28 14:35:38;;;;;;;6.82;0.93;;;;;;;;;;5100570;27;20047;-82
2022/01/28 14:38:05;;;;;;;16.40;2.58;;;;;;;;;;5091918;28;20046;-81
2022/01/28 14:40:31;;;;;;;8.02;1.35;;;;;;;;;;5079139;27;20046;-82
2022/01/28 14:42:57;;;;;;;11.60;1.60;;;;;;;;;;5097606;27;20050;-82
2022/01/28 14:45:23;;;;;;;9.95;1.38;;;;;;;;;;5099273;28;20035;-80
2022/01/28 14:47:49;;;;;;;12.98;1.90;;;;;;;;;;5093028;27;20043;-81
2022/01/28 14:50:16;;;;;;;9.98;1.15;;;;;;;;;;5080336;28;20039;-83
2022/01/28 14:52:42;;;;;;;13.55;1.17;;;;;;;;;;5090523;27;20031;-81
2022/01/28 14:55:08;;;;;;;7.00;1.45;;;;;;;;;;5078406;27;20071;-81
2022/01/28 14:57:34;;;;;;;17.52;2.17;;;;;;;;;;5091526;27;20449;-83
2022/01/28 15:00:00;;;;;;;10.57;1.00;;;;;;;;;;5097245;27;20484;-82
2022/01/28 15:02:27;;;;;;;10.30;1.05;;;;;;;;;;5075448;28;20043;-82
2022/01/28 15:04:55;;;;;;;12.82;1.20;;;;;;;;;;5096719;27;20561;-84
2022/01/28 15:07:23;;;;;;;8.52;1.10;;;;;;;;;;5078863;28;20079;-83
2022/01/28 15:09:54;;;;;;;7.88;1.13;;;;;;;;;;5080762;27;20243;-83
2022/01/28 15:12:20;;;;;;;8.32;1.00;;;;;;;;;;5072382;28;20058;-82
2022/01/28 15:14:46;;;;;;;6.30;1.60;;;;;;;;;;5104660;27;20084;-83
2022/01/28 15:17:15;;;;;;;5.28;1.02;;;;;;;;;;5076603;27;20043;-82
2022/01/28 15:19:41;;;;;;;6.30;0.90;;;;;;;;;;5093318;28;20513;-82
2022/01/28 15:22:08;;;;;;;10.50;1.23;;;;;;;;;;5094788;28;20100;-83
2022/01/28 15:24:34;;;;;;;9.90;1.27;;;;;;;;;;5096827;28;20051;-82
2022/01/28 15:27:00;;;;;;;17.50;1.80;;;;;;;;;;5093510;27;20058;-82
2022/01/28 15:37:18;;;;;;;3.85;1.20;;;;;;;;;;5102769;27;20045;-82
2022/01/28 15:39:45;;;;;;;7.18;1.00;;;;;;;;;;5077561;28;20043;-82
2022/01/28 15:42:13;;;;;;;9.50;1.65;;;;;;;;;;5097782;27;20054;-82
2022/01/28 15:44:40;;;;;;;12.35;1.25;;;;;;;;;;5075133;28;20550;-82
2022/01/28 15:47:07;;;;;;;4.25;0.93;;;;;;;;;;5098788;27;20579;-82
2022/01/28 15:49:34;;;;;;;4.18;1.33;;;;;;;;;;5096998;28;20569;-82
2022/01/28 15:52:00;;;;;;;8.30;1.60;;;;;;;;;;5100338;27;20035;-82
2022/01/28 15:54:27;;;;;;;6.50;0.63;;;;;;;;;;5098604;27;20067;-82
2022/01/28 15:56:53;;;;;;;9.02;1.60;;;;;;;;;;5096840;27;20064;-79
2022/01/28 15:59:19;;;;;;;5.22;1.05;;;;;;;;;;5099593;27;20303;-81
2022/01/28 16:01:45;;;;;;;5.63;1.13;;;;;;;;;;5082715;27;20031;-81
2022/01/28 16:04:12;;;;;;;12.65;2.22;;;;;;;;;;5083555;27;20488;-81
2022/01/28 16:06:39;;;;;;;5.45;0.75;;;;;;;;;;5097012;27;20060;-81
2022/01/28 16:09:06;;;;;;;13.73;1.40;;;;;;;;;;5095523;28;20047;-79